createdAt,value
2022-09-07T00:00:04.044Z,17.500000
2022-09-07T00:01:00.885Z,17.500000
2022-09-07T00:02:00.920Z,17.300000
2022-09-07T00:03:00.954Z,17.300000
2022-09-07T00:04:00.992Z,17.100000
2022-09-07T00:05:03.759Z,17.100000
2022-09-07T00:06:00.954Z,17.100000
2022-09-07T00:07:00.896Z,17.000000
2022-09-07T00:08:00.961Z,17.000000
2022-09-07T00:09:00.933Z,17.000000
2022-09-07T00:10:04.149Z,16.900000
2022-09-07T00:11:00.919Z,16.900000
2022-09-07T00:12:00.997Z,16.800000
2022-09-07T00:13:00.922Z,16.800000
2022-09-07T00:14:00.985Z,16.800000
2022-09-07T00:15:03.985Z,16.800000
2022-09-07T00:16:01.071Z,16.800000
2022-09-07T00:17:00.975Z,16.800000
2022-09-07T00:18:01.026Z,16.700000
2022-09-07T00:19:00.954Z,16.700000
2022-09-07T00:20:04.070Z,16.700000
2022-09-07T00:21:01.010Z,16.700000
2022-09-07T00:22:01.041Z,16.700000
2022-09-07T00:23:00.991Z,16.700000
2022-09-07T00:24:01.061Z,16.700000
2022-09-07T00:25:03.826Z,16.700000
2022-09-07T00:26:01.063Z,16.700000
2022-09-07T00:27:01.041Z,16.700000
2022-09-07T00:28:01.085Z,16.600000
2022-09-07T00:29:01.013Z,16.600000
2022-09-07T00:30:04.126Z,16.700000
2022-09-07T00:31:01.117Z,16.700000
2022-09-07T00:32:01.181Z,16.700000
2022-09-07T00:33:01.063Z,16.700000
2022-09-07T00:34:01.127Z,16.700000
2022-09-07T00:35:03.847Z,16.600000
2022-09-07T00:36:01.139Z,16.600000
2022-09-07T00:37:01.081Z,16.600000
2022-09-07T00:38:01.172Z,16.600000
2022-09-07T00:39:01.106Z,16.600000
2022-09-07T00:40:04.418Z,16.600000
2022-09-07T00:41:01.102Z,16.600000
2022-09-07T00:42:01.188Z,16.600000
2022-09-07T00:43:01.121Z,16.600000
2022-09-07T00:44:01.215Z,16.600000
2022-09-07T00:45:04.601Z,16.600000
2022-09-07T00:46:01.213Z,16.600000
2022-09-07T00:47:01.200Z,16.600000
2022-09-07T00:48:01.264Z,16.600000
2022-09-07T00:49:00.165Z,16.600000
2022-09-07T00:50:03.206Z,16.500000
2022-09-07T00:51:00.190Z,16.500000
2022-09-07T01:04:00.598Z,16.500000
2022-09-07T01:05:00.934Z,16.500000
2022-09-07T01:06:00.570Z,16.500000
2022-09-07T01:07:00.509Z,16.500000
2022-09-07T01:08:00.570Z,16.400000
2022-09-07T01:09:00.534Z,16.400000
2022-09-07T01:10:01.114Z,16.400000
2022-09-07T01:11:00.532Z,16.400000
2022-09-07T01:12:00.617Z,16.400000
2022-09-07T01:13:00.548Z,16.400000
2022-09-07T01:14:00.608Z,16.400000
2022-09-07T01:15:00.924Z,16.400000
2022-09-07T01:16:00.699Z,16.400000
2022-09-07T01:17:00.573Z,16.400000
2022-09-07T01:18:00.672Z,16.400000
2022-09-07T01:19:00.592Z,16.400000
2022-09-07T01:20:01.211Z,16.400000
2022-09-07T01:21:00.627Z,16.400000
2022-09-07T01:22:00.718Z,16.400000
2022-09-07T01:23:00.618Z,16.400000
2022-09-07T01:24:00.692Z,16.400000
2022-09-07T01:25:00.988Z,16.400000
2022-09-07T01:26:00.703Z,16.400000
2022-09-07T01:27:00.647Z,16.400000
2022-09-07T01:28:00.733Z,16.300000
2022-09-07T01:29:00.655Z,16.300000
2022-09-07T01:30:01.238Z,16.300000
2022-09-07T01:31:00.719Z,16.400000
2022-09-07T01:32:00.743Z,16.400000
2022-09-07T01:33:00.703Z,16.400000
2022-09-07T01:34:00.802Z,16.400000
2022-09-07T01:35:01.093Z,16.400000
2022-09-07T01:36:00.810Z,16.300000
2022-09-07T01:37:00.721Z,16.300000
2022-09-07T01:38:00.793Z,16.300000
2022-09-07T01:39:00.742Z,16.300000
2022-09-07T01:40:04.671Z,16.300000
2022-09-07T01:41:00.758Z,16.300000
2022-09-07T01:42:00.855Z,16.300000
2022-09-07T01:43:00.774Z,16.300000
2022-09-07T01:44:00.830Z,16.300000
2022-09-07T01:45:03.771Z,16.300000
2022-09-07T01:46:00.922Z,16.300000
2022-09-07T01:47:00.799Z,16.300000
2022-09-07T01:48:00.872Z,16.300000
2022-09-07T01:49:00.808Z,16.300000
2022-09-07T01:50:03.983Z,16.300000
2022-09-07T01:51:00.837Z,16.300000
2022-09-07T01:52:00.949Z,16.300000
2022-09-07T01:53:00.834Z,16.300000
2022-09-07T01:54:00.918Z,16.300000
2022-09-07T01:55:03.871Z,16.300000
2022-09-07T01:56:00.917Z,16.200000
2022-09-07T01:57:00.876Z,16.200000
2022-09-07T01:58:00.965Z,16.200000
2022-09-07T01:59:00.877Z,16.200000
2022-09-07T02:00:04.004Z,16.200000
2022-09-07T02:01:00.913Z,16.200000
2022-09-07T02:02:01.091Z,16.200000
2022-09-07T02:03:01.023Z,16.200000
2022-09-07T02:04:01.031Z,16.200000
2022-09-07T02:05:03.918Z,16.200000
2022-09-07T02:06:01.021Z,16.100000
2022-09-07T02:07:00.963Z,16.100000
2022-09-07T02:08:01.060Z,16.100000
2022-09-07T02:09:00.972Z,16.100000
2022-09-07T02:10:04.112Z,16.100000
2022-09-07T02:11:00.993Z,16.100000
2022-09-07T02:12:01.083Z,16.100000
2022-09-07T02:13:01.010Z,16.100000
2022-09-07T02:14:01.073Z,16.100000
2022-09-07T02:15:03.874Z,16.100000
2022-09-07T02:16:01.159Z,16.100000
2022-09-07T02:17:01.030Z,16.100000
2022-09-07T02:18:01.104Z,16.100000
2022-09-07T02:19:01.054Z,16.100000
2022-09-07T02:20:04.239Z,16.100000
2022-09-07T02:21:01.080Z,16.100000
2022-09-07T02:22:01.167Z,16.100000
2022-09-07T02:23:01.082Z,16.100000
2022-09-07T02:24:01.199Z,16.100000
2022-09-07T02:25:03.907Z,16.100000
2022-09-07T02:26:01.161Z,16.100000
2022-09-07T02:27:01.105Z,16.100000
2022-09-07T02:28:01.183Z,16.100000
2022-09-07T02:29:01.116Z,16.100000
2022-09-07T02:30:04.269Z,16.100000
2022-09-07T02:31:01.196Z,16.100000
2022-09-07T02:32:01.201Z,16.100000
2022-09-07T02:33:01.147Z,16.100000
2022-09-07T02:34:01.236Z,16.100000
2022-09-07T02:35:04.434Z,16.100000
2022-09-07T02:36:01.244Z,16.100000
2022-09-07T02:37:00.184Z,16.100000
2022-09-07T02:38:00.266Z,16.100000
2022-09-07T02:39:00.201Z,16.000000
2022-09-07T02:40:04.233Z,16.000000
2022-09-07T02:41:00.224Z,16.000000
2022-09-07T02:42:00.308Z,16.000000
2022-09-07T02:43:00.230Z,16.000000
2022-09-07T02:44:00.294Z,16.000000
2022-09-07T02:45:03.250Z,16.000000
2022-09-07T02:46:00.468Z,16.000000
2022-09-07T02:47:00.256Z,16.000000
2022-09-07T02:48:00.326Z,16.000000
2022-09-07T02:49:00.275Z,15.900000
2022-09-07T02:50:03.435Z,15.900000
2022-09-07T02:51:00.284Z,15.900000
2022-09-07T02:52:00.386Z,15.900000
2022-09-07T02:53:00.307Z,15.900000
2022-09-07T02:54:00.357Z,15.900000
2022-09-07T02:55:03.169Z,15.900000
2022-09-07T02:56:00.393Z,15.900000
2022-09-07T02:57:00.335Z,15.900000
2022-09-07T02:58:00.427Z,15.900000
2022-09-07T02:59:00.325Z,15.900000
2022-09-07T03:00:04.605Z,15.800000
2022-09-07T03:01:00.434Z,15.800000
2022-09-07T03:02:00.422Z,15.800000
2022-09-07T03:03:00.559Z,15.800000
2022-09-07T03:04:00.468Z,15.800000
2022-09-07T03:05:03.190Z,15.800000
2022-09-07T03:06:00.468Z,15.800000
2022-09-07T03:07:00.407Z,15.800000
2022-09-07T03:08:00.474Z,15.800000
2022-09-07T03:09:00.422Z,15.800000
2022-09-07T03:10:03.802Z,15.700000
2022-09-07T03:11:00.431Z,15.700000
2022-09-07T03:12:00.517Z,15.700000
2022-09-07T03:13:00.457Z,15.700000
2022-09-07T03:14:00.514Z,15.700000
2022-09-07T03:15:03.156Z,15.700000
2022-09-07T03:16:00.650Z,15.700000
2022-09-07T03:17:00.507Z,15.700000
2022-09-07T03:18:00.571Z,15.600000
2022-09-07T03:19:00.497Z,15.600000
2022-09-07T03:20:03.903Z,15.600000
2022-09-07T03:21:00.539Z,15.600000
2022-09-07T03:22:00.611Z,15.600000
2022-09-07T03:23:00.531Z,15.600000
2022-09-07T03:24:00.606Z,15.600000
2022-09-07T03:25:03.400Z,15.600000
2022-09-07T03:26:00.622Z,15.600000
2022-09-07T03:27:00.564Z,15.600000
2022-09-07T03:28:00.691Z,15.600000
2022-09-07T03:29:00.568Z,15.600000
2022-09-07T03:30:04.215Z,15.600000
2022-09-07T03:31:00.653Z,15.600000
2022-09-07T03:32:00.660Z,15.600000
2022-09-07T03:33:00.614Z,15.500000
2022-09-07T03:34:00.713Z,15.500000
2022-09-07T03:35:03.482Z,15.500000
2022-09-07T03:36:00.715Z,15.500000
2022-09-07T03:37:00.652Z,15.500000
2022-09-07T03:38:00.712Z,15.500000
2022-09-07T03:39:00.671Z,15.500000
2022-09-07T03:40:03.831Z,15.500000
2022-09-07T03:41:00.745Z,15.500000
2022-09-07T03:42:00.758Z,15.500000
2022-09-07T03:43:00.697Z,15.500000
2022-09-07T03:44:00.792Z,15.500000
2022-09-07T03:45:03.478Z,15.500000
2022-09-07T03:46:00.884Z,15.500000
2022-09-07T03:47:00.719Z,15.500000
2022-09-07T03:48:00.801Z,15.500000
2022-09-07T03:49:00.737Z,15.500000
2022-09-07T03:50:04.003Z,15.400000
2022-09-07T03:51:00.747Z,15.400000
2022-09-07T03:52:00.852Z,15.400000
2022-09-07T03:53:00.767Z,15.400000
2022-09-07T03:54:00.859Z,15.400000
2022-09-07T03:55:03.762Z,15.400000
2022-09-07T03:56:00.853Z,15.400000
2022-09-07T03:57:00.806Z,15.400000
2022-09-07T03:58:00.992Z,15.400000
2022-09-07T03:59:00.800Z,15.400000
2022-09-07T04:00:03.985Z,15.300000
2022-09-07T04:01:00.961Z,15.300000
2022-09-07T04:02:00.980Z,15.300000
2022-09-07T04:03:00.865Z,15.300000
2022-09-07T04:04:02.460Z,15.300000
2022-09-07T04:05:03.932Z,15.300000
2022-09-07T04:06:00.957Z,15.300000
2022-09-07T04:07:00.883Z,15.300000
2022-09-07T04:08:00.968Z,15.300000
2022-09-07T04:09:00.894Z,15.300000
2022-09-07T04:10:04.265Z,15.300000
2022-09-07T04:11:00.906Z,15.300000
2022-09-07T04:12:00.989Z,15.300000
2022-09-07T04:13:00.931Z,15.200000
2022-09-07T04:14:01.016Z,15.200000
2022-09-07T04:15:04.069Z,15.200000
2022-09-07T04:16:01.018Z,15.200000
2022-09-07T04:17:01.022Z,15.200000
2022-09-07T04:18:01.022Z,15.200000
2022-09-07T04:19:00.976Z,15.200000
2022-09-07T04:20:05.596Z,15.100000
2022-09-07T04:21:00.989Z,15.100000
2022-09-07T04:22:01.081Z,15.100000
2022-09-07T04:23:00.987Z,15.200000
2022-09-07T04:24:01.064Z,15.200000
2022-09-07T04:25:05.452Z,15.200000
2022-09-07T04:26:01.090Z,15.100000
2022-09-07T04:27:01.038Z,15.100000
2022-09-07T04:28:01.119Z,15.100000
2022-09-07T04:29:01.033Z,15.100000
2022-09-07T04:30:05.430Z,15.100000
2022-09-07T04:31:01.136Z,15.100000
2022-09-07T04:32:01.113Z,15.100000
2022-09-07T04:33:01.071Z,15.100000
2022-09-07T04:34:01.175Z,15.100000
2022-09-07T04:35:04.022Z,15.100000
2022-09-07T04:36:01.159Z,15.200000
2022-09-07T04:37:01.094Z,15.200000
2022-09-07T04:38:01.156Z,15.200000
2022-09-07T04:39:01.113Z,15.200000
2022-09-07T04:40:05.614Z,15.200000
2022-09-07T04:41:01.125Z,15.200000
2022-09-07T04:42:01.206Z,15.200000
2022-09-07T04:43:01.144Z,15.200000
2022-09-07T04:44:01.233Z,15.200000
2022-09-07T04:45:04.061Z,15.200000
2022-09-07T04:46:01.401Z,15.300000
2022-09-07T04:47:01.165Z,15.300000
2022-09-07T04:48:00.251Z,15.300000
2022-09-07T04:49:00.186Z,15.300000
2022-09-07T04:50:03.569Z,15.300000
2022-09-07T04:51:02.921Z,15.300000
2022-09-07T04:52:00.740Z,15.300000
2022-09-07T04:53:00.236Z,15.300000
2022-09-07T04:54:00.302Z,15.300000
2022-09-07T04:55:03.068Z,15.300000
2022-09-07T04:56:00.313Z,15.300000
2022-09-07T04:57:00.261Z,15.300000
2022-09-07T04:58:00.352Z,15.300000
2022-09-07T04:59:00.275Z,15.300000
2022-09-07T05:00:03.573Z,15.300000
2022-09-07T05:01:00.497Z,15.300000
2022-09-07T05:02:00.458Z,15.300000
2022-09-07T05:03:00.313Z,15.300000
2022-09-07T05:04:00.422Z,15.300000
2022-09-07T05:05:03.243Z,15.300000
2022-09-07T05:06:00.404Z,15.300000
2022-09-07T05:07:00.338Z,15.300000
2022-09-07T05:08:00.405Z,15.300000
2022-09-07T05:09:00.376Z,15.300000
2022-09-07T05:10:06.860Z,15.300000
2022-09-07T05:11:00.373Z,15.300000
2022-09-07T05:12:00.449Z,15.300000
2022-09-07T05:13:00.392Z,15.300000
2022-09-07T05:14:00.476Z,15.300000
2022-09-07T05:15:03.433Z,15.300000
2022-09-07T05:16:00.491Z,15.300000
2022-09-07T05:17:00.471Z,15.300000
2022-09-07T05:18:00.513Z,15.300000
2022-09-07T05:19:00.417Z,15.300000
2022-09-07T05:20:05.629Z,15.300000
2022-09-07T05:21:00.459Z,15.200000
2022-09-07T05:22:00.547Z,15.200000
2022-09-07T05:23:00.493Z,15.200000
2022-09-07T05:24:00.549Z,15.200000
2022-09-07T05:25:03.173Z,15.200000
2022-09-07T05:26:00.563Z,15.200000
2022-09-07T05:27:00.503Z,15.200000
2022-09-07T05:28:00.588Z,15.200000
2022-09-07T05:30:05.174Z,15.100000
2022-09-07T05:32:00.600Z,15.000000
2022-09-07T05:33:00.550Z,15.000000
2022-09-07T05:34:30.995Z,15.100000
2022-09-07T05:35:03.353Z,15.100000
2022-09-07T05:36:00.635Z,15.100000
2022-09-07T05:37:00.563Z,15.100000
2022-09-07T05:38:00.638Z,15.100000
2022-09-07T05:39:00.596Z,15.100000
2022-09-07T05:40:04.015Z,15.100000
2022-09-07T05:41:00.597Z,15.100000
2022-09-07T05:42:00.666Z,15.100000
2022-09-07T05:43:00.613Z,15.100000
2022-09-07T05:45:03.447Z,15.100000
2022-09-07T05:46:00.742Z,15.100000
2022-09-07T05:47:00.634Z,15.100000
2022-09-07T05:48:00.720Z,15.100000
2022-09-07T05:49:00.657Z,15.100000
2022-09-07T05:50:03.924Z,15.100000
2022-09-07T05:51:00.682Z,15.100000
2022-09-07T05:52:00.779Z,15.200000
2022-09-07T05:53:00.694Z,15.200000
2022-09-07T05:54:00.763Z,15.200000
2022-09-07T05:55:26.168Z,15.300000
2022-09-07T05:56:05.128Z,15.300000
2022-09-07T05:57:00.716Z,15.400000
2022-09-07T05:58:00.821Z,15.400000
2022-09-07T05:59:00.724Z,15.400000
2022-09-07T06:00:04.001Z,15.400000
2022-09-07T06:01:00.737Z,15.400000
2022-09-07T06:02:00.995Z,15.500000
2022-09-07T06:03:00.917Z,15.500000
2022-09-07T06:04:00.842Z,15.500000
2022-09-07T06:05:03.599Z,15.700000
2022-09-07T06:06:00.860Z,15.700000
2022-09-07T06:07:22.722Z,15.800000
2022-09-07T06:08:00.849Z,15.800000
2022-09-07T06:09:00.803Z,15.800000
2022-09-07T06:11:00.813Z,15.900000
2022-09-07T06:12:00.878Z,16.100000
2022-09-07T06:13:00.827Z,16.100000
2022-09-07T06:14:00.891Z,16.100000
2022-09-07T06:15:05.536Z,16.300000
2022-09-07T06:16:00.911Z,16.300000
2022-09-07T06:17:00.907Z,16.300000
2022-09-07T06:18:00.931Z,16.400000
2022-09-07T06:19:00.873Z,16.400000
2022-09-07T06:20:04.094Z,16.600000
2022-09-07T06:21:00.911Z,16.600000
2022-09-07T06:22:00.969Z,16.800000
2022-09-07T06:23:00.899Z,16.800000
2022-09-07T06:24:00.971Z,16.900000
2022-09-07T06:25:04.972Z,16.900000
2022-09-07T06:26:00.986Z,16.900000
2022-09-07T06:27:00.983Z,17.000000
2022-09-07T06:28:00.989Z,17.000000
2022-09-07T06:29:00.933Z,17.000000
2022-09-07T06:30:06.321Z,17.200000
2022-09-07T06:31:00.955Z,17.200000
2022-09-07T06:33:01.005Z,17.400000
2022-09-07T06:34:01.029Z,17.500000
2022-09-07T06:35:04.298Z,17.500000
2022-09-07T06:36:01.057Z,17.500000
2022-09-07T06:37:01.005Z,17.600000
2022-09-07T06:38:01.103Z,17.600000
2022-09-07T06:39:01.036Z,17.600000
2022-09-07T06:40:05.357Z,17.700000
2022-09-07T06:42:01.289Z,17.700000
2022-09-07T06:43:01.026Z,17.700000
2022-09-07T06:44:01.105Z,17.700000
2022-09-07T06:45:04.072Z,17.700000
2022-09-07T06:48:01.142Z,17.800000
2022-09-07T06:49:01.069Z,17.800000
2022-09-07T06:50:07.374Z,18.000000
2022-09-07T06:51:01.082Z,18.000000
2022-09-07T06:52:01.220Z,18.100000
2022-09-07T06:55:03.960Z,18.200000
2022-09-07T06:56:01.333Z,18.200000
2022-09-07T06:57:01.133Z,18.200000
2022-09-07T06:58:01.343Z,18.200000
2022-09-07T06:59:01.132Z,18.200000
2022-09-07T07:00:04.596Z,18.300000
2022-09-07T07:01:01.279Z,18.300000
2022-09-07T07:02:01.437Z,18.400000
2022-09-07T07:03:00.411Z,18.400000
2022-09-07T07:04:00.343Z,18.400000
2022-09-07T07:05:03.379Z,18.400000
2022-09-07T07:06:00.418Z,18.400000
2022-09-07T07:07:00.202Z,18.400000
2022-09-07T07:08:00.540Z,18.400000
2022-09-07T07:09:00.341Z,18.400000
2022-09-07T07:10:04.888Z,18.100000
2022-09-07T07:11:00.234Z,18.100000
2022-09-07T07:12:00.304Z,18.100000
2022-09-07T07:13:00.365Z,18.000000
2022-09-07T07:14:00.442Z,18.000000
2022-09-07T07:15:06.861Z,18.000000
2022-09-07T07:16:00.522Z,18.000000
2022-09-07T07:17:00.349Z,18.000000
2022-09-07T07:18:13.472Z,18.300000
2022-09-07T07:19:00.443Z,18.300000
2022-09-07T07:20:04.946Z,18.300000
2022-09-07T07:21:00.331Z,18.300000
2022-09-07T07:22:35.920Z,18.300000
2022-09-07T07:23:00.378Z,18.400000
2022-09-07T07:24:02.187Z,18.400000
2022-09-07T07:25:04.635Z,18.500000
2022-09-07T07:26:00.615Z,18.500000
2022-09-07T07:27:00.393Z,18.500000
2022-09-07T07:29:01.398Z,18.500000
2022-09-07T07:30:03.711Z,18.700000
2022-09-07T07:31:00.550Z,18.700000
2022-09-07T07:32:00.921Z,18.700000
2022-09-07T07:33:00.439Z,18.800000
2022-09-07T07:34:00.659Z,18.800000
2022-09-07T07:35:04.842Z,18.800000
2022-09-07T07:36:00.527Z,18.900000
2022-09-07T07:37:00.423Z,18.900000
2022-09-07T07:39:01.338Z,18.900000
2022-09-07T07:40:21.273Z,18.900000
2022-09-07T07:42:03.562Z,18.900000
2022-09-07T07:43:00.480Z,19.200000
2022-09-07T07:44:00.813Z,19.200000
2022-09-07T07:46:03.963Z,19.400000
2022-09-07T07:47:00.605Z,19.400000
2022-09-07T07:48:00.641Z,19.500000
2022-09-07T07:49:00.587Z,19.500000
2022-09-07T07:50:33.353Z,19.600000
2022-09-07T07:51:04.380Z,19.600000
2022-09-07T07:54:00.794Z,19.600000
2022-09-07T07:55:42.890Z,19.600000
2022-09-07T07:56:00.667Z,19.600000
2022-09-07T07:57:00.728Z,19.600000
2022-09-07T07:58:00.751Z,19.700000
2022-09-07T07:59:00.585Z,19.700000
2022-09-07T08:00:04.596Z,19.700000
2022-09-07T08:01:00.770Z,19.900000
2022-09-07T08:02:01.012Z,19.900000
2022-09-07T08:03:00.642Z,20.100000
2022-09-07T08:04:00.812Z,20.100000
2022-09-07T08:05:05.125Z,20.300000
2022-09-07T08:06:00.843Z,20.300000
2022-09-07T08:07:01.953Z,20.300000
2022-09-07T08:08:00.958Z,20.800000
2022-09-07T08:09:00.761Z,20.800000
2022-09-07T08:10:05.134Z,20.900000
2022-09-07T08:11:00.891Z,20.900000
2022-09-07T08:12:00.859Z,20.900000
2022-09-07T08:13:00.803Z,21.100000
2022-09-07T08:14:01.120Z,21.100000
2022-09-07T08:15:04.846Z,21.200000
2022-09-07T08:16:00.856Z,21.200000
2022-09-07T08:17:00.942Z,21.200000
2022-09-07T08:18:00.936Z,21.200000
2022-09-07T08:19:00.986Z,21.200000
2022-09-07T08:20:04.554Z,21.200000
2022-09-07T08:21:00.873Z,21.100000
2022-09-07T08:22:00.943Z,21.100000
2022-09-07T08:23:00.926Z,21.500000
2022-09-07T08:24:00.881Z,21.500000
2022-09-07T08:25:03.866Z,21.500000
2022-09-07T08:26:01.134Z,21.500000
2022-09-07T08:27:00.826Z,21.500000
2022-09-07T08:28:00.950Z,21.800000
2022-09-07T08:29:00.989Z,21.800000
2022-09-07T08:30:05.232Z,21.800000
2022-09-07T08:31:00.849Z,22.100000
2022-09-07T08:32:01.337Z,22.100000
2022-09-07T08:33:01.006Z,22.100000
2022-09-07T08:34:01.020Z,22.200000
2022-09-07T08:35:05.640Z,22.200000
2022-09-07T08:36:01.000Z,22.100000
2022-09-07T08:37:00.980Z,22.100000
2022-09-07T08:38:01.174Z,22.300000
2022-09-07T08:39:01.001Z,22.300000
2022-09-07T08:40:04.563Z,22.300000
2022-09-07T08:41:01.033Z,22.700000
2022-09-07T08:42:01.076Z,22.700000
2022-09-07T08:43:00.997Z,22.700000
2022-09-07T08:44:01.036Z,22.700000
2022-09-07T08:45:05.365Z,22.700000
2022-09-07T08:46:01.272Z,22.800000
2022-09-07T08:47:01.132Z,22.800000
2022-09-07T08:48:01.187Z,22.700000
2022-09-07T08:49:01.024Z,22.700000
2022-09-07T08:50:14.199Z,22.700000
2022-09-07T08:51:01.028Z,22.700000
2022-09-07T08:52:01.181Z,22.700000
2022-09-07T08:53:01.127Z,22.700000
2022-09-07T08:54:01.088Z,22.900000
2022-09-07T08:55:04.428Z,22.900000
2022-09-07T08:56:01.226Z,22.900000
2022-09-07T08:57:22.372Z,23.000000
2022-09-07T08:58:01.169Z,23.000000
2022-09-07T08:59:01.021Z,23.100000
2022-09-07T09:00:06.322Z,23.100000
2022-09-07T09:01:31.183Z,23.200000
2022-09-07T09:02:32.553Z,23.200000
2022-09-07T09:03:30.506Z,23.200000
2022-09-07T09:04:17.969Z,23.000000
2022-09-07T09:05:18.833Z,23.000000
2022-09-07T09:06:01.302Z,23.000000
2022-09-07T09:07:01.260Z,22.700000
2022-09-07T09:08:01.181Z,22.700000
2022-09-07T09:09:01.114Z,22.700000
2022-09-07T09:10:05.759Z,22.700000
2022-09-07T09:11:01.229Z,22.800000
2022-09-07T09:12:01.332Z,22.800000
2022-09-07T09:13:01.200Z,22.800000
2022-09-07T09:14:01.423Z,23.000000
2022-09-07T09:15:05.323Z,23.000000
2022-09-07T09:16:01.292Z,23.000000
2022-09-07T09:17:01.276Z,23.100000
2022-09-07T09:18:01.259Z,23.100000
2022-09-07T09:19:01.166Z,23.100000
2022-09-07T09:20:05.686Z,23.100000
2022-09-07T09:21:01.177Z,23.100000
2022-09-07T09:22:00.242Z,23.000000
2022-09-07T09:23:00.210Z,23.000000
2022-09-07T09:24:00.280Z,23.000000
2022-09-07T09:25:04.417Z,23.000000
2022-09-07T09:26:00.383Z,23.000000
2022-09-07T09:27:00.298Z,23.300000
2022-09-07T09:28:00.280Z,23.300000
2022-09-07T09:29:00.243Z,23.300000
2022-09-07T09:30:04.049Z,23.300000
2022-09-07T09:31:00.352Z,23.300000
2022-09-07T09:32:00.497Z,23.300000
2022-09-07T09:33:00.260Z,23.300000
2022-09-07T09:34:00.351Z,22.900000
2022-09-07T09:35:03.331Z,22.900000
2022-09-07T09:36:00.376Z,22.900000
2022-09-07T09:37:00.286Z,23.200000
2022-09-07T09:38:00.392Z,23.200000
2022-09-07T09:39:00.309Z,23.200000
2022-09-07T09:40:03.734Z,23.500000
2022-09-07T09:41:00.313Z,23.500000
2022-09-07T09:42:00.411Z,23.800000
2022-09-07T09:43:00.335Z,23.800000
2022-09-07T09:44:00.437Z,23.900000
2022-09-07T09:45:03.214Z,23.900000
2022-09-07T09:46:14.043Z,23.900000
2022-09-07T09:47:30.715Z,23.900000
2022-09-07T09:48:00.450Z,23.900000
2022-09-07T09:49:00.368Z,23.500000
2022-09-07T09:50:04.744Z,23.500000
2022-09-07T09:52:32.659Z,23.700000
2022-09-07T09:53:00.408Z,23.700000
2022-09-07T09:54:00.479Z,23.400000
2022-09-07T09:55:33.107Z,23.400000
2022-09-07T09:56:00.519Z,23.300000
2022-09-07T09:57:00.440Z,23.300000
2022-09-07T09:59:56.698Z,23.400000
2022-09-07T10:00:12.113Z,23.400000
2022-09-07T10:01:24.279Z,23.400000
2022-09-07T10:04:01.461Z,23.200000
2022-09-07T10:05:05.251Z,23.200000
2022-09-07T10:06:00.564Z,23.300000
2022-09-07T10:07:00.499Z,23.300000
2022-09-07T10:08:00.616Z,23.300000
2022-09-07T10:09:00.521Z,23.300000
2022-09-07T10:10:13.386Z,23.400000
2022-09-07T10:11:00.526Z,23.400000
2022-09-07T10:12:08.146Z,23.400000
2022-09-07T10:13:00.547Z,23.400000
2022-09-07T10:14:00.636Z,23.400000
2022-09-07T10:15:12.952Z,23.300000
2022-09-07T10:16:00.683Z,23.300000
2022-09-07T10:17:02.124Z,23.200000
2022-09-07T10:18:00.638Z,23.200000
2022-09-07T10:19:00.585Z,23.200000
2022-09-07T10:20:03.762Z,23.200000
2022-09-07T10:21:00.638Z,23.200000
2022-09-07T10:22:00.674Z,23.100000
2022-09-07T10:23:00.615Z,23.100000
2022-09-07T10:24:00.793Z,23.100000
2022-09-07T10:25:03.700Z,23.100000
2022-09-07T10:26:00.743Z,23.100000
2022-09-07T10:27:00.650Z,23.300000
2022-09-07T10:28:00.717Z,23.300000
2022-09-07T10:29:08.559Z,23.300000
2022-09-07T10:30:06.808Z,23.300000
2022-09-07T10:31:00.709Z,23.300000
2022-09-07T10:32:00.774Z,23.500000
2022-09-07T10:33:00.690Z,23.500000
2022-09-07T10:34:27.130Z,23.500000
2022-09-07T10:35:05.315Z,23.400000
2022-09-07T10:36:00.801Z,23.400000
2022-09-07T10:37:00.875Z,23.400000
2022-09-07T10:38:00.798Z,23.200000
2022-09-07T10:39:00.730Z,23.200000
2022-09-07T10:40:13.732Z,23.200000
2022-09-07T10:41:00.748Z,23.200000
2022-09-07T10:42:00.918Z,23.200000
2022-09-07T10:43:22.414Z,23.200000
2022-09-07T10:44:01.046Z,23.200000
2022-09-07T10:45:13.401Z,23.000000
2022-09-07T10:46:01.038Z,23.000000
2022-09-07T10:47:00.844Z,23.000000
2022-09-07T10:48:00.948Z,22.900000
2022-09-07T10:49:00.912Z,22.900000
2022-09-07T10:50:23.971Z,22.900000
2022-09-07T10:51:07.373Z,22.900000
2022-09-07T10:52:00.952Z,22.900000
2022-09-07T10:53:04.068Z,22.900000
2022-09-07T10:54:30.897Z,22.900000
2022-09-07T10:55:13.606Z,23.000000
2022-09-07T10:56:01.037Z,23.000000
2022-09-07T10:57:00.858Z,23.000000
2022-09-07T10:58:01.104Z,23.300000
2022-09-07T10:59:03.074Z,23.300000
2022-09-07T11:00:10.008Z,23.600000
2022-09-07T11:01:00.996Z,23.600000
2022-09-07T11:02:01.004Z,23.600000
2022-09-07T11:03:26.653Z,24.100000
2022-09-07T11:04:01.176Z,24.100000
2022-09-07T11:05:04.125Z,24.100000
2022-09-07T11:06:01.034Z,24.300000
2022-09-07T11:07:01.318Z,24.300000
2022-09-07T11:08:01.170Z,24.600000
2022-09-07T11:09:18.072Z,24.600000
2022-09-07T11:10:13.411Z,24.900000
2022-09-07T11:11:01.069Z,24.900000
2022-09-07T11:12:01.733Z,24.900000
2022-09-07T11:13:01.134Z,25.400000
2022-09-07T11:14:12.591Z,25.400000
2022-09-07T11:15:13.662Z,25.700000
2022-09-07T11:16:01.148Z,25.700000
2022-09-07T11:17:01.194Z,25.700000
2022-09-07T11:18:01.154Z,25.700000
2022-09-07T11:20:13.819Z,25.400000
2022-09-07T11:21:01.077Z,25.400000
2022-09-07T11:22:01.147Z,25.400000
2022-09-07T11:23:01.077Z,25.500000
2022-09-07T11:24:01.292Z,25.500000
2022-09-07T11:25:29.725Z,25.500000
2022-09-07T11:26:01.355Z,25.500000
2022-09-07T11:27:01.201Z,25.500000
2022-09-07T11:28:01.166Z,25.300000
2022-09-07T11:29:29.953Z,25.300000
2022-09-07T11:30:14.954Z,25.300000
2022-09-07T11:31:01.220Z,25.000000
2022-09-07T11:32:01.189Z,25.000000
2022-09-07T11:33:01.598Z,24.700000
2022-09-07T11:34:25.164Z,24.700000
2022-09-07T11:35:14.036Z,24.700000
2022-09-07T11:36:01.257Z,24.700000
2022-09-07T11:37:01.256Z,24.700000
2022-09-07T11:38:01.337Z,24.900000
2022-09-07T11:39:01.272Z,24.900000
2022-09-07T11:40:12.893Z,25.200000
2022-09-07T11:41:00.189Z,25.200000
2022-09-07T11:42:00.776Z,25.200000
2022-09-07T11:43:00.379Z,25.500000
2022-09-07T11:44:00.311Z,25.500000
2022-09-07T11:45:12.890Z,25.500000
2022-09-07T11:46:00.527Z,25.500000
2022-09-07T11:47:00.241Z,25.500000
2022-09-07T11:48:00.522Z,25.700000
2022-09-07T11:49:00.250Z,25.700000
2022-09-07T11:50:12.824Z,25.500000
2022-09-07T11:51:00.264Z,25.500000
2022-09-07T11:52:05.101Z,25.500000
2022-09-07T11:53:00.909Z,25.700000
2022-09-07T11:54:00.384Z,25.700000
2022-09-07T11:55:13.318Z,25.800000
2022-09-07T11:56:00.403Z,25.800000
2022-09-07T11:57:00.397Z,25.800000